createdAt,value
2022-10-12T00:00:07.328Z,37.17
2022-10-12T00:02:37.113Z,34.08
2022-10-12T00:05:04.777Z,42.20
2022-10-12T00:07:31.861Z,37.35
2022-10-12T00:09:58.967Z,35.35
2022-10-12T00:12:26.359Z,36.33
2022-10-12T00:14:53.474Z,33.70
2022-10-12T00:17:20.773Z,36.13
2022-10-12T00:19:52.484Z,39.30
2022-10-12T00:22:22.091Z,37.65
2022-10-12T00:24:49.285Z,39.17
2022-10-12T00:27:16.374Z,39.13
2022-10-12T00:29:45.379Z,36.05
2022-10-12T00:32:12.529Z,32.92
2022-10-12T00:34:39.682Z,33.90
2022-10-12T00:37:06.961Z,34.72
2022-10-12T00:39:34.163Z,36.63
2022-10-12T00:42:01.414Z,34.20
2022-10-12T00:44:39.833Z,39.50
2022-10-12T00:47:36.422Z,34.25
2022-10-12T00:50:36.960Z,32.75
2022-10-12T00:53:14.530Z,33.00
2022-10-12T00:55:49.692Z,31.73
2022-10-12T00:58:17.311Z,36.10
2022-10-12T01:00:45.185Z,32.10
2022-10-12T01:03:25.331Z,34.20
2022-10-12T01:05:52.636Z,28.25
2022-10-12T01:08:19.805Z,30.80
2022-10-12T01:10:47.014Z,34.22
2022-10-12T01:13:14.838Z,33.80
2022-10-12T01:16:01.567Z,32.25
2022-10-12T01:18:45.668Z,30.80
2022-10-12T01:21:22.187Z,39.90
2022-10-12T01:24:24.795Z,28.27
2022-10-12T01:27:03.184Z,25.63
2022-10-12T01:30:07.411Z,30.70
2022-10-12T01:33:11.169Z,27.42
2022-10-12T01:36:12.791Z,25.17
2022-10-12T01:39:19.651Z,31.17
2022-10-12T01:41:59.355Z,32.97
2022-10-12T01:44:27.300Z,30.58
2022-10-12T01:46:56.759Z,28.27
2022-10-12T01:49:30.888Z,30.38
2022-10-12T01:52:00.593Z,25.27
2022-10-12T01:54:42.683Z,24.42
2022-10-12T01:57:38.734Z,30.27
2022-10-12T02:00:16.900Z,26.40
2022-10-12T02:03:02.016Z,31.58
2022-10-12T02:06:11.608Z,35.17
2022-10-12T02:08:55.468Z,32.42
2022-10-12T02:11:26.063Z,27.25
2022-10-12T02:14:13.457Z,27.33
2022-10-12T02:17:04.712Z,27.60
2022-10-12T02:19:39.609Z,23.60
2022-10-12T02:22:08.879Z,28.35
2022-10-12T02:24:41.586Z,28.80
2022-10-12T02:27:11.434Z,24.95
2022-10-12T02:29:45.801Z,25.95
2022-10-12T02:32:38.471Z,29.05
2022-10-12T02:35:31.201Z,27.95
2022-10-12T02:38:47.955Z,25.52
2022-10-12T02:41:30.007Z,23.88
2022-10-12T02:44:04.319Z,18.45
2022-10-12T02:46:34.429Z,28.05
2022-10-12T02:49:07.033Z,31.95
2022-10-12T02:51:35.380Z,29.98
2022-10-12T02:54:03.569Z,29.65
2022-10-12T02:56:30.856Z,29.65
2022-10-12T02:58:58.185Z,27.27
2022-10-12T03:01:25.334Z,28.17
2022-10-12T03:03:52.569Z,26.35
2022-10-12T03:06:20.390Z,31.05
2022-10-12T03:08:47.547Z,27.42
2022-10-12T03:11:14.806Z,25.65
2022-10-12T03:13:41.942Z,26.10
2022-10-12T03:16:11.367Z,36.63
2022-10-12T03:18:38.764Z,25.10
2022-10-12T03:21:06.183Z,24.65
2022-10-12T03:23:33.670Z,27.15
2022-10-12T03:26:00.849Z,30.42
2022-10-12T03:28:28.157Z,26.15
2022-10-12T03:30:55.686Z,32.35
2022-10-12T03:33:23.112Z,22.52
2022-10-12T03:35:50.781Z,32.13
2022-10-12T03:38:18.971Z,22.58
2022-10-12T03:40:46.721Z,25.73
2022-10-12T03:43:14.259Z,27.50
2022-10-12T03:45:41.398Z,25.95
2022-10-12T03:48:09.368Z,23.92
2022-10-12T03:50:37.071Z,26.23
2022-10-12T03:53:06.138Z,19.95
2022-10-12T03:55:33.914Z,24.65
2022-10-12T03:58:03.591Z,26.63
2022-10-12T04:00:30.658Z,26.58
2022-10-12T04:02:57.826Z,24.88
2022-10-12T04:05:25.152Z,22.80
2022-10-12T04:07:52.245Z,23.35
2022-10-12T04:10:19.646Z,25.40
2022-10-12T04:12:47.223Z,20.88
2022-10-12T04:15:15.000Z,24.02
2022-10-12T04:17:42.227Z,24.30
2022-10-12T04:20:11.488Z,24.30
2022-10-12T04:22:39.631Z,31.58
2022-10-12T04:25:07.351Z,28.65
2022-10-12T04:27:37.333Z,29.58
2022-10-12T04:30:05.279Z,24.05
2022-10-12T04:32:34.566Z,30.65
2022-10-12T04:35:04.126Z,25.27
2022-10-12T04:37:31.185Z,27.42
2022-10-12T04:39:58.390Z,25.10
2022-10-12T04:42:25.430Z,30.25
2022-10-12T04:44:54.948Z,24.48
2022-10-12T04:47:22.455Z,24.73
2022-10-12T04:49:49.870Z,26.00
2022-10-12T04:52:17.333Z,26.02
2022-10-12T04:54:44.389Z,27.48
2022-10-12T04:57:11.409Z,25.83
2022-10-12T04:59:38.475Z,26.00
2022-10-12T05:02:05.693Z,23.85
2022-10-12T05:04:32.806Z,22.60
2022-10-12T05:06:59.966Z,26.52
2022-10-12T05:09:27.263Z,25.60
2022-10-12T05:11:54.289Z,26.98
2022-10-12T05:14:21.502Z,30.13
2022-10-12T05:16:49.018Z,24.90
2022-10-12T05:19:16.144Z,24.95
2022-10-12T05:21:43.296Z,22.05
2022-10-12T05:24:11.590Z,25.90
2022-10-12T05:26:41.001Z,30.48
2022-10-12T05:29:08.260Z,23.92
2022-10-12T05:31:35.406Z,32.47
2022-10-12T05:34:04.676Z,30.92
2022-10-12T05:36:34.140Z,35.42
2022-10-12T05:39:01.294Z,31.73
2022-10-12T05:41:28.355Z,34.20
2022-10-12T05:43:55.621Z,38.88
2022-10-12T05:46:23.207Z,37.90
2022-10-12T05:48:50.442Z,45.13
2022-10-12T05:51:17.942Z,49.92
2022-10-12T05:53:45.303Z,63.65
2022-10-12T05:56:12.410Z,43.65
2022-10-12T05:58:39.607Z,50.20
2022-10-12T06:01:13.184Z,62.53
2022-10-12T06:03:41.029Z,75.90
2022-10-12T06:06:08.434Z,64.30
2022-10-12T06:08:36.240Z,52.55
2022-10-12T06:11:03.723Z,46.22
2022-10-12T06:13:31.158Z,49.67
2022-10-12T06:16:00.653Z,47.17
2022-10-12T06:18:30.926Z,40.97
2022-10-12T06:23:45.665Z,42.65
2022-10-12T06:26:13.051Z,36.15
2022-10-12T06:28:40.240Z,43.47
2022-10-12T06:31:07.370Z,47.03
2022-10-12T06:33:37.238Z,45.78
2022-10-12T06:36:04.505Z,38.50
2022-10-12T06:38:31.690Z,40.05
2022-10-12T06:41:01.327Z,41.45
2022-10-12T06:43:28.383Z,40.45
2022-10-12T06:46:02.240Z,33.75
2022-10-12T06:48:30.409Z,35.50
2022-10-12T06:50:57.588Z,44.30
2022-10-12T06:53:25.864Z,38.88
2022-10-12T06:55:52.994Z,44.83
2022-10-12T06:58:20.158Z,35.35
2022-10-12T07:00:47.361Z,40.70
2022-10-12T07:03:14.910Z,36.22
2022-10-12T07:05:42.063Z,35.42
2022-10-12T07:08:09.293Z,36.72
2022-10-12T07:10:36.374Z,38.13
2022-10-12T07:13:08.016Z,33.60
2022-10-12T07:15:35.066Z,37.45
2022-10-12T07:18:02.091Z,28.10
2022-10-12T07:20:29.185Z,22.23
2022-10-12T07:22:56.390Z,24.25
2022-10-12T07:25:23.441Z,24.00
2022-10-12T07:27:50.702Z,27.02
2022-10-12T07:30:17.923Z,22.27
2022-10-12T07:32:46.431Z,19.48
2022-10-12T07:35:13.706Z,20.15
2022-10-12T07:37:42.897Z,20.38
2022-10-12T07:40:10.450Z,20.30
2022-10-12T07:42:48.870Z,16.80
2022-10-12T07:45:30.105Z,20.33
2022-10-12T07:47:57.183Z,25.63
2022-10-12T07:50:25.319Z,24.15
2022-10-12T07:52:53.733Z,24.50
2022-10-12T07:55:20.793Z,21.00
2022-10-12T07:57:47.911Z,24.08
2022-10-12T08:00:15.465Z,21.80
2022-10-12T08:02:42.754Z,20.00
2022-10-12T08:05:10.233Z,21.13
2022-10-12T08:07:37.810Z,19.40
2022-10-12T08:10:05.877Z,20.65
2022-10-12T08:12:32.971Z,21.52
2022-10-12T08:15:00.051Z,17.83
2022-10-12T08:17:27.091Z,22.73
2022-10-12T08:19:54.097Z,21.17
2022-10-12T08:22:21.293Z,23.55
2022-10-12T08:24:48.358Z,19.00
2022-10-12T08:27:15.452Z,22.50
2022-10-12T08:29:42.477Z,18.63
2022-10-12T08:32:09.560Z,23.42
2022-10-12T08:34:36.682Z,17.13
2022-10-12T08:37:03.967Z,19.98
2022-10-12T08:39:31.107Z,18.85
2022-10-12T08:42:06.527Z,17.83
2022-10-12T08:44:54.753Z,18.30
2022-10-12T08:47:30.795Z,13.20
2022-10-12T08:50:02.803Z,16.88
2022-10-12T08:52:37.030Z,17.63
2022-10-12T08:55:52.993Z,16.98
2022-10-12T08:58:31.485Z,16.02
2022-10-12T09:01:23.039Z,16.73
2022-10-12T09:04:22.260Z,13.63
2022-10-12T09:07:31.255Z,15.43
2022-10-12T09:10:34.982Z,16.35
2022-10-12T09:13:34.241Z,15.38
2022-10-12T09:16:25.395Z,16.50
2022-10-12T09:19:23.614Z,15.47
2022-10-12T09:21:51.038Z,16.90
2022-10-12T09:24:34.369Z,15.05
2022-10-12T09:27:29.667Z,10.25
2022-10-12T09:30:05.637Z,15.27
2022-10-12T09:33:37.911Z,12.60
2022-10-12T09:36:05.776Z,10.82
2022-10-12T09:38:33.175Z,16.50
2022-10-12T09:41:00.266Z,14.63
2022-10-12T09:43:29.757Z,16.05
2022-10-12T09:46:01.672Z,12.32
2022-10-12T09:48:35.350Z,18.17
2022-10-12T09:51:06.375Z,11.85
2022-10-12T09:53:47.627Z,11.02
2022-10-12T09:56:30.411Z,12.45
2022-10-12T09:59:06.274Z,11.85
2022-10-12T10:01:38.518Z,17.05
2022-10-12T10:04:16.715Z,14.43
2022-10-12T10:06:46.755Z,10.65
2022-10-12T10:09:36.032Z,9.48
2022-10-12T10:12:28.873Z,9.32
2022-10-12T10:14:58.690Z,9.85
2022-10-12T10:17:34.655Z,13.38
2022-10-12T10:20:02.953Z,8.73
2022-10-12T10:22:30.907Z,11.38
2022-10-12T10:25:00.873Z,10.93
2022-10-12T10:27:38.793Z,7.93
2022-10-12T10:30:29.579Z,12.02
2022-10-12T10:33:20.270Z,8.98
2022-10-12T10:36:22.395Z,8.45
2022-10-12T10:38:56.530Z,10.77
2022-10-12T10:41:46.239Z,7.80
2022-10-12T10:44:36.049Z,5.65
2022-10-12T10:47:15.863Z,12.13
2022-10-12T10:49:53.749Z,5.22
2022-10-12T10:52:29.866Z,10.15
2022-10-12T10:55:46.356Z,8.82
2022-10-12T10:58:46.447Z,6.88
2022-10-12T11:01:38.150Z,12.13
2022-10-12T11:04:11.072Z,7.40
2022-10-12T11:06:46.531Z,8.68
2022-10-12T11:09:20.158Z,10.20
2022-10-12T11:11:57.561Z,8.75
2022-10-12T11:14:34.333Z,8.43
2022-10-12T11:17:11.655Z,7.82
2022-10-12T11:20:19.577Z,6.80
2022-10-12T11:23:26.032Z,9.68
2022-10-12T11:26:01.878Z,8.55
2022-10-12T11:28:32.824Z,5.15
2022-10-12T11:31:01.445Z,8.67
2022-10-12T11:33:38.889Z,8.27
2022-10-12T11:36:19.490Z,8.32
2022-10-12T11:39:06.683Z,10.38
2022-10-12T11:42:09.572Z,6.72
2022-10-12T11:47:36.949Z,10.98
2022-10-12T11:50:26.882Z,7.15
2022-10-12T11:52:56.266Z,11.52
2022-10-12T11:55:38.882Z,9.82
2022-10-12T11:58:15.010Z,7.18
2022-10-12T12:01:00.470Z,6.50
2022-10-12T12:04:17.138Z,8.88
2022-10-12T12:07:03.656Z,11.03
2022-10-12T12:09:46.500Z,12.07
2022-10-12T12:12:31.558Z,13.60
2022-10-12T12:15:20.056Z,23.37
2022-10-12T12:18:22.992Z,19.88
2022-10-12T12:20:49.931Z,9.45
2022-10-12T12:24:05.896Z,19.15
2022-10-12T12:26:33.877Z,25.10
2022-10-12T12:29:18.410Z,13.57
2022-10-12T12:31:59.290Z,16.15
2022-10-12T12:34:31.869Z,7.82
2022-10-12T12:37:10.764Z,16.85
2022-10-12T12:39:40.339Z,13.70
2022-10-12T12:42:09.600Z,13.63
2022-10-12T12:44:44.586Z,12.77
2022-10-12T12:47:44.467Z,9.75
2022-10-12T12:50:29.101Z,12.40
2022-10-12T12:53:11.038Z,11.63
2022-10-12T12:56:08.571Z,14.50
2022-10-12T12:59:27.226Z,9.18
2022-10-12T13:02:06.147Z,12.90
2022-10-12T13:04:56.435Z,9.95
2022-10-12T13:07:48.899Z,11.55
2022-10-12T13:10:43.219Z,12.65
2022-10-12T13:13:47.943Z,12.48
2022-10-12T13:19:29.425Z,28.83
2022-10-12T13:22:00.586Z,24.38
2022-10-12T13:24:51.650Z,23.35
2022-10-12T13:27:26.874Z,20.00
2022-10-12T13:30:05.494Z,16.05
2022-10-12T13:32:44.325Z,17.38
2022-10-12T13:36:06.913Z,23.85
2022-10-12T13:38:38.633Z,13.77
2022-10-12T13:41:16.671Z,12.98
2022-10-12T13:44:05.799Z,9.57
2022-10-12T13:46:56.811Z,15.18
2022-10-12T13:49:28.263Z,11.35
2022-10-12T13:52:01.096Z,9.48
2022-10-12T13:54:38.126Z,8.38
2022-10-12T13:57:39.282Z,11.05
2022-10-12T14:00:09.425Z,11.73
2022-10-12T14:02:42.202Z,13.30
2022-10-12T14:05:30.327Z,10.80
2022-10-12T14:08:10.763Z,13.95
2022-10-12T14:10:39.477Z,10.93
2022-10-12T14:13:13.179Z,13.18
2022-10-12T14:15:41.542Z,21.17
2022-10-12T14:18:38.413Z,30.92
2022-10-12T14:21:23.515Z,30.75
2022-10-12T14:24:09.253Z,20.67
2022-10-12T14:26:43.655Z,16.40
2022-10-12T14:29:28.934Z,13.60
2022-10-12T14:32:02.451Z,17.33
2022-10-12T14:34:29.485Z,11.80
2022-10-12T14:37:28.256Z,13.05
2022-10-12T14:40:00.509Z,10.45
2022-10-12T14:42:29.088Z,12.30
2022-10-12T14:44:58.971Z,12.23
2022-10-12T14:47:34.865Z,18.20
2022-10-12T14:50:08.291Z,8.90
2022-10-12T14:52:45.000Z,12.10
2022-10-12T14:55:25.570Z,10.35
2022-10-12T14:57:55.656Z,9.98
2022-10-12T15:00:31.695Z,10.05
2022-10-12T15:03:02.225Z,8.45
2022-10-12T15:05:32.048Z,17.20
2022-10-12T15:08:01.086Z,9.00
2022-10-12T15:10:29.274Z,10.65
2022-10-12T15:12:56.397Z,15.80
2022-10-12T15:15:42.823Z,16.83
2022-10-12T15:18:10.220Z,26.77
2022-10-12T15:20:38.579Z,37.28
2022-10-12T15:23:08.554Z,33.65
2022-10-12T15:25:35.527Z,36.70
2022-10-12T15:28:05.512Z,32.47
2022-10-12T15:30:47.343Z,34.33
2022-10-12T15:33:24.005Z,28.80
2022-10-12T15:35:51.390Z,29.08
2022-10-12T15:38:20.888Z,33.70
2022-10-12T15:40:48.083Z,32.45
2022-10-12T15:45:47.311Z,36.38
2022-10-12T15:48:14.480Z,30.25
2022-10-12T15:50:45.959Z,39.53
2022-10-12T15:53:21.264Z,40.38
2022-10-12T15:55:48.653Z,28.52
2022-10-12T15:58:19.653Z,31.02
2022-10-12T16:00:46.826Z,21.52
2022-10-12T16:03:22.666Z,29.13
2022-10-12T16:05:52.593Z,29.52
2022-10-12T16:08:19.970Z,27.90
2022-10-12T16:10:48.437Z,28.08
2022-10-12T16:13:16.472Z,27.55
2022-10-12T16:15:44.021Z,34.05
2022-10-12T16:18:11.781Z,26.60
2022-10-12T16:20:41.399Z,32.47
2022-10-12T16:23:31.246Z,29.08
2022-10-12T16:26:02.047Z,31.58
2022-10-12T16:28:29.167Z,34.30
2022-10-12T16:30:56.496Z,41.00
2022-10-12T16:33:23.640Z,32.35
2022-10-12T16:35:50.916Z,30.50
2022-10-12T16:38:20.210Z,31.38
2022-10-12T16:40:49.103Z,24.13
2022-10-12T16:43:16.268Z,23.05
2022-10-12T16:45:43.484Z,41.20
2022-10-12T16:48:10.691Z,30.13
2022-10-12T16:50:40.825Z,28.58
2022-10-12T16:53:10.638Z,32.20
2022-10-12T16:55:40.153Z,30.58
2022-10-12T16:58:07.216Z,29.60
2022-10-12T17:00:34.415Z,30.67
2022-10-12T17:03:01.538Z,24.60
2022-10-12T17:05:28.889Z,23.98
2022-10-12T17:07:56.007Z,24.15
2022-10-12T17:10:23.089Z,28.15
2022-10-12T17:12:50.169Z,33.15
2022-10-12T17:15:17.494Z,25.02
2022-10-12T17:17:46.892Z,26.55
2022-10-12T17:20:14.065Z,30.98
2022-10-12T17:22:41.130Z,25.40
2022-10-12T17:25:09.206Z,36.38
2022-10-12T17:27:36.396Z,32.92
2022-10-12T17:30:06.054Z,30.85
2022-10-12T17:32:37.771Z,41.55
2022-10-12T17:35:05.657Z,42.75
2022-10-12T17:37:33.700Z,94.70
2022-10-12T17:40:00.810Z,65.88
2022-10-12T17:42:28.467Z,63.38
2022-10-12T17:44:55.599Z,67.72
2022-10-12T17:47:22.713Z,73.78
2022-10-12T17:49:49.898Z,73.47
2022-10-12T17:52:17.355Z,58.90
2022-10-12T17:54:44.661Z,68.22
2022-10-12T17:57:11.752Z,56.08
2022-10-12T17:59:41.987Z,67.88
2022-10-12T18:02:10.827Z,67.38
2022-10-12T18:04:37.954Z,71.10
2022-10-12T18:07:05.192Z,62.20
2022-10-12T18:09:32.254Z,64.05
2022-10-12T18:11:59.294Z,59.88
2022-10-12T18:14:26.372Z,69.45
2022-10-12T18:16:54.388Z,68.70
2022-10-12T18:19:21.501Z,72.05
2022-10-12T18:21:48.792Z,65.32
2022-10-12T18:24:17.433Z,72.70
2022-10-12T18:26:47.448Z,67.32
2022-10-12T18:29:14.947Z,75.40
2022-10-12T18:31:42.149Z,71.95
2022-10-12T18:34:09.439Z,71.07
2022-10-12T18:36:39.963Z,78.82
2022-10-12T18:39:07.123Z,79.50
2022-10-12T18:41:36.720Z,82.47
2022-10-12T18:44:04.031Z,100.78
2022-10-12T18:46:35.383Z,87.60
2022-10-12T18:49:07.045Z,103.60
2022-10-12T18:51:39.543Z,89.18
2022-10-12T18:54:11.694Z,90.55
2022-10-12T18:56:39.587Z,94.05
2022-10-12T18:59:07.571Z,90.47
2022-10-12T19:01:34.970Z,93.20
2022-10-12T19:04:03.921Z,87.28
2022-10-12T19:06:38.725Z,102.00
2022-10-12T19:09:08.736Z,91.63
2022-10-12T19:11:38.346Z,96.78
2022-10-12T19:14:14.357Z,91.05
2022-10-12T19:16:42.950Z,89.07
2022-10-12T19:19:21.076Z,104.93
2022-10-12T19:21:50.598Z,107.35
2022-10-12T19:24:21.655Z,98.25
2022-10-12T19:26:49.099Z,107.18
2022-10-12T19:29:16.269Z,116.57
2022-10-12T19:31:47.501Z,104.78
2022-10-12T19:34:18.146Z,105.15
2022-10-12T19:36:46.046Z,99.68
2022-10-12T19:39:17.762Z,98.70
2022-10-12T19:41:46.287Z,84.05
2022-10-12T19:44:13.429Z,93.28
2022-10-12T19:46:42.734Z,104.55
2022-10-12T19:49:10.916Z,112.88
2022-10-12T19:51:40.683Z,109.40
2022-10-12T19:54:07.876Z,108.75
2022-10-12T19:56:35.029Z,102.60
2022-10-12T19:59:02.151Z,117.75
2022-10-12T20:01:36.286Z,123.20
2022-10-12T20:04:10.148Z,133.70
2022-10-12T20:06:38.288Z,129.90
2022-10-12T20:09:07.568Z,124.50
2022-10-12T20:11:35.172Z,123.22
2022-10-12T20:14:02.398Z,130.50
2022-10-12T20:16:34.675Z,123.05
2022-10-12T20:19:03.690Z,122.55
2022-10-12T20:21:33.693Z,131.77
2022-10-12T20:24:03.448Z,121.75
2022-10-12T20:26:30.591Z,115.13
2022-10-12T20:29:01.428Z,115.70
2022-10-12T20:31:29.527Z,114.93
2022-10-12T20:33:58.012Z,123.68
2022-10-12T20:36:31.134Z,118.82
2022-10-12T20:38:59.275Z,115.25
2022-10-12T20:41:29.461Z,108.00
2022-10-12T20:44:00.792Z,113.10
2022-10-12T20:46:29.684Z,106.87
2022-10-12T20:49:00.415Z,105.35
2022-10-12T20:51:40.057Z,104.53
2022-10-12T20:54:09.080Z,101.53
2022-10-12T20:56:40.349Z,98.38
2022-10-12T20:59:07.482Z,97.60
2022-10-12T21:01:34.655Z,96.05
2022-10-12T21:04:01.799Z,96.53
2022-10-12T21:06:29.114Z,98.68
2022-10-12T21:09:06.747Z,95.50
2022-10-12T21:11:37.220Z,92.70
2022-10-12T21:14:04.330Z,82.03
2022-10-12T21:16:31.880Z,89.38
2022-10-12T21:19:01.561Z,91.22
2022-10-12T21:21:28.738Z,74.45
2022-10-12T21:24:00.802Z,72.25
2022-10-12T21:26:30.544Z,69.55
2022-10-12T21:28:59.820Z,83.07
2022-10-12T21:31:32.041Z,76.75
2022-10-12T21:34:06.239Z,75.20
2022-10-12T21:36:36.570Z,72.65
2022-10-12T21:39:08.380Z,72.78
2022-10-12T21:41:38.638Z,81.57
2022-10-12T21:44:06.156Z,69.60
2022-10-12T21:46:35.274Z,67.18
2022-10-12T21:49:04.749Z,69.35
2022-10-12T21:51:32.972Z,74.57
2022-10-12T21:54:00.352Z,74.75
2022-10-12T21:56:31.291Z,77.15
2022-10-12T21:59:03.229Z,75.05
2022-10-12T22:01:37.459Z,75.20
2022-10-12T22:04:14.537Z,64.95
2022-10-12T22:06:43.270Z,72.95
2022-10-12T22:09:16.750Z,68.78
2022-10-12T22:11:44.388Z,75.53
2022-10-12T22:14:16.018Z,65.28
2022-10-12T22:16:46.239Z,74.00
2022-10-12T22:19:18.965Z,64.47
2022-10-12T22:21:51.594Z,70.72
2022-10-12T22:24:20.362Z,68.85
2022-10-12T22:26:47.544Z,62.33
2022-10-12T22:29:16.940Z,59.33
2022-10-12T22:31:44.680Z,60.83
2022-10-12T22:34:12.216Z,63.00
2022-10-12T22:36:39.385Z,70.78
2022-10-12T22:39:06.461Z,71.97
2022-10-12T22:41:33.635Z,59.78
2022-10-12T22:44:03.090Z,69.40
2022-10-12T22:46:30.248Z,63.50
2022-10-12T22:48:57.491Z,68.90
2022-10-12T22:51:36.205Z,67.93
2022-10-12T22:54:06.678Z,61.90
2022-10-12T22:56:34.251Z,55.47
2022-10-12T22:59:06.656Z,58.95
2022-10-12T23:01:35.482Z,62.00
2022-10-12T23:04:03.075Z,62.47
2022-10-12T23:06:30.490Z,56.17
2022-10-12T23:08:58.252Z,62.85
2022-10-12T23:11:28.877Z,66.78
2022-10-12T23:13:58.050Z,66.18
2022-10-12T23:16:29.087Z,66.80
2022-10-12T23:19:02.421Z,70.97
2022-10-12T23:21:32.122Z,64.22
2022-10-12T23:24:01.593Z,67.13
2022-10-12T23:26:31.798Z,62.95
2022-10-12T23:29:01.559Z,66.93
2022-10-12T23:31:32.245Z,64.90
2022-10-12T23:34:02.209Z,64.38
2022-10-12T23:36:32.112Z,62.05
2022-10-12T23:39:07.269Z,60.65
2022-10-12T23:41:34.361Z,56.20
2022-10-12T23:44:01.600Z,58.50
2022-10-12T23:46:28.790Z,50.00
2022-10-12T23:48:55.931Z,57.85
2022-10-12T23:51:23.115Z,53.67
2022-10-12T23:53:50.262Z,56.88
2022-10-12T23:56:17.521Z,64.03
2022-10-12T23:58:44.601Z,59.42
